EXX weather

Davidson County Airport
Lexington, North Carolina, United States

Public forecast

Using degrees Fahrenheit for public forecast. Weather courtesy of forecast.io.

METAR (pilot weather report)

Retrieved 2019/07/16 17:35 UTC (12 minutes ago):

KEXX 161735Z AUTO 31004KT 10SM CLR 33/23 A3013 RMK AO2 T03250226

TAF (pilot weather forecast)

Closest forecast is Smith Reynolds Airport, 21.5 nm (39.9 km) N. Retrieved 2019/07/16 12:22 UTC (5 hours ago):

TAF KINT 161120Z 1612/1712 24005KT P6SM BKN200